Ana Sayfa
METAR-TAF:

METAR-TAF

Havaalanları :

Fort-de-France, Martinique

Enlem: 14-36N, Boylam: 061-00W, yükseklik: 5 m

Güncel hava durumu gözlemi

Rapor saat 04:30 UTC de 14 dakika önce yapıldı.
Rüzgar doğudan 10 kt
Sıcaklık 25°C
Nem 79%
Basınç 1015 hPa
Görüş mesafesi 10 km veya daha fazla

METAR: TFFF 270430Z AUTO 09010KT 9999 FEW023/// BKN078/// ///TCU 25/21 Q1015 TEMPO 3000 SHRA

Saat: 00:44 (04:44 UTC)

Tahmin

Rapor saat 23:00 UTC de 5 saat ve 44 dakika önce yapıldı.
Ayın 27'si saat 00 UTC'den ayın 27'si saat 24 UTC'ye kadar geçerli Tahmin
Rüzgar doğudan 10 kt
Görüş mesafesi 10 km veya daha fazla
2500 ft yükseklikte parçalı bulutlu
5000 ft yükseklikte parçalı çok bulutlu
Olasılık 40% :
Geçici
ayın 27'si saat 03 UTC'den ayın 27'si saat 22 UTC'ye kadar
Görüş mesafesi: 3000 m
1800 ft yükseklikte parçalı çok bulutlu, Yükselen kümülüs.
sağanak yağmurlar

TAF: TFFF 262300Z 2700/2724 10010KT 9999 SCT025 BKN050 PROB40 TEMPO 2703/2722 3000 SHRA BKN018TCU

4.000'den fazla havaalanı için hava durumu gözlemleri ve tahminleri (METAR ve TAF raporları).

Kullanılabilir istasyonlar harita üzerinde sarı ve kırmızı noktalarla gösterilir.

İstasyonun adını görmek için fareyi noktanın üzerinde gezdirin.

Sonrasında hava gözlem ve tahminlerini görmek için tıklayın.

Haritayı değiştirmek için: yaklaştırmak için siyah artı işaretli yeşil düğmeye ve uzaklaştırmak için de eksi işaretli düğmeye hızla tıklayın; bitişik haritalar için yeşil okları kullanın.


METAR-TAF: